Glenmont, Ohio
Current Conditions -  °F | °C
As of 12:16 PM on Wednesday 26 Nov 2014 (Local Time) from K4I3 Reporting Station
Overcast Overcast  
Wind Chill: 29°   Ceiling: 2900
Heat Index: 34°   Visibility: 10mi
Dew Point: 28°   Wind: 6mph
Humidity: 81%   Direction: 50°NE
Pressure: 30.06"   Gusts: NA
Location:  40.52°N, 82.1°W
Report Text: K4I3 261716Z AUTO 05005KT 10SM OVC029 01/M02 A3006 RMK AO2
Loading
Personal Weather Stations






























Interactive Weather Map New forecast layout! Learn more

10-Day Weather Forecast

Advertisements
Track Severe Weather on mobile